Time;durP1;ratioP1;P1;durP2;ratioP2;P2;SDS_P1;SDS_P2;PMS_P1;PMS_P2;Temp;Humidity;BMP_temperature;BMP_pressure;BME280_temperature;BME280_humidity;BME280_pressure;Samples;Min_cycle;Max_cycle;Signal;HPM_P1;HPM_P2
2022/09/23 04:02:56;;;;;;;5.67;2.70;;;1.50;96.30;;;;;;4944754;28;20486;-80
2022/09/23 04:05:21;;;;;;;5.47;3.90;;;1.40;96.30;;;;;;4938991;28;20428;-80
2022/09/23 04:07:48;;;;;;;6.40;4.60;;;1.40;96.30;;;;;;4934136;29;20179;-81
2022/09/23 04:10:13;;;;;;;7.33;4.37;;;1.30;96.30;;;;;;4931429;28;20165;-81
2022/09/23 04:12:38;;;;;;;6.90;5.10;;;1.30;96.30;;;;;;4917049;29;20423;-80
2022/09/23 04:15:05;;;;;;;12.67;9.20;;;1.30;96.30;;;;;;4916218;29;20220;-79
2022/09/23 04:17:30;;;;;;;5.47;3.80;;;1.20;96.30;;;;;;4934121;29;20211;-80
2022/09/23 04:19:56;;;;;;;5.43;3.20;;;1.30;96.30;;;;;;4935038;29;20438;-80
2022/09/23 04:22:22;;;;;;;4.13;3.00;;;1.40;96.30;;;;;;4938804;29;20278;-78
2022/09/23 04:24:48;;;;;;;9.17;4.60;;;1.50;96.30;;;;;;4926527;29;20180;-78
2022/09/23 04:27:13;;;;;;;3.87;3.40;;;1.40;96.30;;;;;;4937783;29;20420;-76
2022/09/23 04:29:39;;;;;;;4.70;3.40;;;1.40;96.30;;;;;;4956322;29;20183;-76
2022/09/23 04:32:04;;;;;;;4.17;3.17;;;1.40;96.30;;;;;;4940112;29;20713;-77
2022/09/23 04:34:30;;;;;;;5.60;3.43;;;1.50;96.30;;;;;;4939993;29;20198;-79
2022/09/23 04:36:55;;;;;;;4.10;2.77;;;1.50;96.30;;;;;;4932526;29;20228;-77
2022/09/23 04:39:21;;;;;;;3.67;2.33;;;1.50;96.30;;;;;;4947539;28;20228;-77
2022/09/23 04:41:46;;;;;;;5.93;2.77;;;1.50;96.30;;;;;;4943823;29;20778;-79
2022/09/23 04:44:13;;;;;;;6.17;2.50;;;1.50;96.30;;;;;;4959190;29;20177;-77
2022/09/23 04:46:48;;;;;;;2.93;2.60;;;1.60;96.30;;;;;;4957011;29;20705;-78
2022/09/23 04:49:14;;;;;;;3.93;3.20;;;1.60;96.30;;;;;;4941369;28;20423;-77
2022/09/23 04:51:42;;;;;;;2.20;2.00;;;1.60;96.30;;;;;;4939858;29;20447;-77
2022/09/23 04:54:10;;;;;;;5.23;3.57;;;1.60;96.30;;;;;;4941207;29;20847;-77
2022/09/23 04:56:35;;;;;;;3.67;2.60;;;1.70;96.30;;;;;;4936406;28;20542;-78
2022/09/23 04:59:01;;;;;;;4.33;3.47;;;1.60;96.30;;;;;;4955040;29;20917;-81
2022/09/23 05:01:29;;;;;;;5.10;3.73;;;1.60;96.30;;;;;;4941052;29;20238;-78
2022/09/23 05:03:56;;;;;;;5.17;3.10;;;1.70;96.30;;;;;;4941615;29;20632;-80
2022/09/23 05:06:22;;;;;;;9.17;3.10;;;1.70;96.30;;;;;;4941361;29;20908;-76
2022/09/23 05:08:53;;;;;;;3.33;2.80;;;1.70;96.30;;;;;;4943701;29;20459;-79
2022/09/23 05:11:20;;;;;;;6.00;3.50;;;1.70;96.30;;;;;;4958634;29;20446;-80
2022/09/23 05:13:51;;;;;;;4.60;3.47;;;1.70;96.30;;;;;;4955077;28;20479;-79
2022/09/23 05:16:17;;;;;;;5.70;3.60;;;1.80;96.30;;;;;;4938781;28;20915;-78
2022/09/23 05:18:44;;;;;;;4.10;2.80;;;1.80;96.30;;;;;;4938876;29;20415;-79
2022/09/23 05:21:15;;;;;;;4.20;2.80;;;1.90;96.30;;;;;;4954332;28;20537;-77
2022/09/23 05:23:41;;;;;;;7.53;3.93;;;1.90;96.30;;;;;;4939856;29;20411;-79
2022/09/23 05:26:10;;;;;;;3.63;3.27;;;2.10;96.30;;;;;;4954183;28;20904;-79
2022/09/23 05:28:38;;;;;;;8.47;5.30;;;2.80;96.30;;;;;;4920450;29;20420;-79
2022/09/23 05:31:13;;;;;;;6.73;5.00;;;3.70;96.30;;;;;;4920352;29;20444;-80
2022/09/23 05:33:39;;;;;;;8.23;3.70;;;4.60;96.30;;;;;;4935956;29;20424;-80
2022/09/23 05:36:06;;;;;;;5.70;3.13;;;5.30;96.30;;;;;;4935286;29;20464;-80
2022/09/23 05:38:31;;;;;;;3.00;2.70;;;5.90;96.30;;;;;;4935298;29;20448;-79
2022/09/23 05:41:02;;;;;;;2.93;2.47;;;7.00;96.30;;;;;;4931408;29;20946;-79
2022/09/23 05:43:28;;;;;;;3.67;2.53;;;7.90;96.30;;;;;;4958228;29;20414;-78
2022/09/23 05:46:04;;;;;;;3.17;2.40;;;8.80;96.30;;;;;;4973966;28;20419;-79
2022/09/23 05:48:31;;;;;;;3.47;2.30;;;9.70;96.30;;;;;;4972319;28;20186;-80
2022/09/23 05:50:57;;;;;;;2.57;1.90;;;10.40;96.30;;;;;;4958310;28;20526;-78
2022/09/23 05:53:22;;;;;;;5.03;2.90;;;10.90;96.30;;;;;;4958221;28;20454;-78
2022/09/23 05:55:48;;;;;;;2.90;2.10;;;11.40;96.30;;;;;;4958248;28;20195;-79
2022/09/23 05:58:13;;;;;;;5.90;2.37;;;12.00;96.30;;;;;;4958150;28;20382;-81
2022/09/23 06:26:33;;;;;;;3.40;2.37;;;15.30;96.30;;;;;;5751429;23;20993;-80
2022/09/23 06:29:01;;;;;;;3.57;2.60;;;16.30;95.90;;;;;;4975386;28;20409;-79
2022/09/23 06:31:27;;;;;;;4.87;3.30;;;16.80;93.50;;;;;;4975312;28;20479;-80
2022/09/23 06:33:53;;;;;;;4.53;2.40;;;17.70;91.30;;;;;;4989452;28;20413;-80
2022/09/23 06:36:18;;;;;;;3.30;2.30;;;17.20;91.10;;;;;;4975319;28;20781;-81
2022/09/23 06:38:44;;;;;;;2.60;2.03;;;17.00;93.70;;;;;;4975076;28;20170;-80
2022/09/23 06:41:10;;;;;;;3.43;2.20;;;17.40;91.40;;;;;;4975138;28;20267;-81
2022/09/23 06:43:36;;;;;;;4.00;2.37;;;17.60;90.70;;;;;;4975231;28;20232;-79
2022/09/23 06:46:03;;;;;;;3.90;2.30;;;16.70;94.10;;;;;;4975083;28;20413;-78
2022/09/23 06:48:34;;;;;;;6.23;2.30;;;17.30;93.00;;;;;;4974838;28;20189;-81
2022/09/23 06:51:04;;;;;;;5.20;2.30;;;17.60;91.20;;;;;;4974859;28;20437;-79
2022/09/23 06:53:33;;;;;;;6.87;2.33;;;18.00;91.70;;;;;;4975282;28;20413;-80
2022/09/23 06:56:01;;;;;;;2.87;2.00;;;17.40;91.80;;;;;;4974772;28;20450;-80
2022/09/23 06:58:27;;;;;;;5.27;2.50;;;17.50;91.00;;;;;;4988768;28;20436;-79
2022/09/23 07:00:58;;;;;;;2.87;2.00;;;17.90;90.60;;;;;;4989701;28;20445;-79
2022/09/23 07:03:24;;;;;;;2.80;2.30;;;17.10;92.50;;;;;;4974911;28;20398;-80
2022/09/23 07:05:54;;;;;;;4.30;3.20;;;17.40;92.30;;;;;;4974512;28;20417;-79
2022/09/23 07:08:19;;;;;;;5.00;3.33;;;17.50;92.60;;;;;;4974465;28;20170;-80
2022/09/23 07:10:50;;;;;;;4.43;2.80;;;18.10;90.80;;;;;;4974552;28;20445;-79
2022/09/23 07:13:16;;;;;;;8.20;3.13;;;18.00;91.80;;;;;;4974548;28;20175;-80
2022/09/23 07:15:41;;;;;;;3.17;2.50;;;18.40;91.20;;;;;;4970750;28;20521;-79
2022/09/23 07:18:07;;;;;;;3.47;3.07;;;18.10;91.40;;;;;;4955326;29;20717;-78
2022/09/23 07:20:32;;;;;;;3.53;2.47;;;18.30;89.90;;;;;;4955083;29;20199;-79
2022/09/23 07:22:58;;;;;;;4.57;2.33;;;18.00;91.40;;;;;;4955102;29;20657;-79
2022/09/23 07:25:23;;;;;;;3.37;2.27;;;18.20;91.50;;;;;;4955008;29;20230;-79
2022/09/23 07:27:49;;;;;;;2.23;2.00;;;18.10;91.60;;;;;;4954823;29;20236;-80
2022/09/23 07:30:14;;;;;;;2.53;2.23;;;18.20;92.00;;;;;;4963186;28;20190;-79
2022/09/23 07:32:40;;;;;;;3.77;2.50;;;17.80;92.50;;;;;;4974207;28;20257;-79
2022/09/23 07:35:09;;;;;;;4.70;2.60;;;18.20;91.50;;;;;;4974143;28;20181;-78
2022/09/23 07:37:35;;;;;;;4.60;2.43;;;18.00;91.40;;;;;;4950248;28;20459;-79
2022/09/23 07:40:00;;;;;;;2.33;2.10;;;18.20;92.00;;;;;;4935478;29;20434;-78
2022/09/23 07:42:26;;;;;;;2.30;2.10;;;18.10;92.90;;;;;;4935441;28;20258;-78
2022/09/23 07:44:52;;;;;;;2.40;2.20;;;18.20;92.50;;;;;;4935688;29;20545;-78
2022/09/23 07:47:18;;;;;;;2.70;2.40;;;18.10;92.20;;;;;;4942364;29;20536;-79
2022/09/23 07:49:43;;;;;;;3.03;1.90;;;17.00;96.10;;;;;;4954468;29;20429;-79
2022/09/23 07:52:09;;;;;;;2.40;1.93;;;16.40;96.30;;;;;;4954678;28;20221;-78
2022/09/23 07:54:34;;;;;;;3.00;2.20;;;15.70;96.30;;;;;;4954831;28;20181;-78
2022/09/23 07:57:00;;;;;;;2.30;2.10;;;15.00;96.30;;;;;;4969274;28;20198;-79
2022/09/23 07:59:26;;;;;;;5.10;2.37;;;14.50;96.30;;;;;;4954664;28;20623;-80
2022/09/23 08:01:52;;;;;;;5.03;2.00;;;14.00;96.30;;;;;;4969335;28;20202;-78
2022/09/23 08:04:30;;;;;;;9.70;2.40;;;13.60;96.30;;;;;;4954509;28;20261;-78
2022/09/23 08:06:57;;;;;;;6.50;2.40;;;13.10;96.30;;;;;;4954516;28;20391;-77
2022/09/23 08:09:30;;;;;;;3.97;1.77;;;13.00;96.30;;;;;;4969087;28;20510;-76
2022/09/23 08:11:56;;;;;;;3.03;2.10;;;12.90;96.30;;;;;;4969289;28;20474;-79
2022/09/23 08:14:22;;;;;;;3.77;2.20;;;12.60;96.30;;;;;;4954741;28;20418;-77
2022/09/23 08:16:48;;;;;;;2.43;2.13;;;12.60;96.30;;;;;;4954659;28;20529;-77
2022/09/23 08:19:15;;;;;;;4.83;2.43;;;12.60;96.30;;;;;;4954123;28;20627;-78
2022/09/23 08:21:40;;;;;;;5.93;2.27;;;12.70;96.30;;;;;;4954959;28;20443;-79
2022/09/23 08:24:16;;;;;;;3.43;2.17;;;12.80;96.30;;;;;;4954048;29;20473;-79
2022/09/23 08:26:43;;;;;;;4.93;2.80;;;13.30;96.30;;;;;;4956094;28;20197;-78
2022/09/23 08:29:14;;;;;;;4.80;3.30;;;14.00;96.30;;;;;;4955179;28;20461;-80
2022/09/23 08:31:40;;;;;;;3.63;2.33;;;15.40;96.30;;;;;;4955076;28;20841;-78
2022/09/23 08:34:06;;;;;;;2.30;2.03;;;16.30;96.30;;;;;;4954956;29;20417;-78
2022/09/23 08:36:33;;;;;;;7.57;2.10;;;17.60;96.30;;;;;;4954347;28;20262;-79
2022/09/23 08:38:58;;;;;;;5.20;2.53;;;18.50;96.30;;;;;;4954498;28;20419;-79
2022/09/23 08:41:44;;;;;;;3.80;1.70;;;19.30;95.40;;;;;;4963278;28;20449;-79
2022/09/23 08:44:25;;;;;;;2.23;1.10;;;19.50;86.50;;;;;;4963409;28;20773;-79
2022/09/23 08:47:06;;;;;;;2.60;1.20;;;20.00;86.40;;;;;;4953416;29;20429;-79
2022/09/23 08:49:57;;;;;;;2.13;1.20;;;20.40;87.20;;;;;;4953536;28;20418;-79
2022/09/23 08:52:38;;;;;;;4.10;1.20;;;21.10;82.40;;;;;;4953321;28;20442;-79
2022/09/23 08:55:10;;;;;;;1.37;1.00;;;20.70;84.10;;;;;;4953843;28;20414;-79
2022/09/23 08:57:39;;;;;;;1.40;1.20;;;20.70;84.80;;;;;;4953398;28;20446;-79
2022/09/23 09:00:05;;;;;;;2.10;1.20;;;20.40;82.30;;;;;;4953364;28;20414;-79
2022/09/23 09:02:34;;;;;;;1.23;1.00;;;20.60;79.70;;;;;;4953371;28;20442;-79
2022/09/23 09:05:06;;;;;;;4.07;1.13;;;20.90;80.20;;;;;;4951819;29;20426;-79
2022/09/23 09:07:33;;;;;;;3.53;1.60;;;21.20;78.30;;;;;;4953550;28;20418;-79
2022/09/23 09:10:13;;;;;;;1.33;0.80;;;21.40;79.90;;;;;;4964532;28;20917;-79
2022/09/23 09:12:42;;;;;;;1.70;0.90;;;20.40;82.20;;;;;;4972884;28;20508;-78
2022/09/23 09:15:14;;;;;;;2.60;2.40;;;19.70;80.20;;;;;;4973186;28;20812;-79
2022/09/23 09:18:00;;;;;;;1.70;1.00;;;19.70;78.90;;;;;;4972742;28;20552;-79
2022/09/23 09:20:38;;;;;;;2.30;1.03;;;19.20;77.80;;;;;;4973016;28;20398;-79
2022/09/23 09:23:20;;;;;;;3.17;1.00;;;18.00;81.10;;;;;;4975798;28;20448;-79
2022/09/23 09:25:49;;;;;;;3.60;2.17;;;17.70;79.90;;;;;;4976360;28;20402;-79
2022/09/23 09:28:32;;;;;;;1.67;1.20;;;18.50;81.30;;;;;;4976015;28;20432;-79
2022/09/23 09:31:20;;;;;;;1.10;0.90;;;19.80;78.50;;;;;;4976289;28;20421;-79
2022/09/23 09:34:10;;;;;;;2.30;0.80;;;20.20;77.10;;;;;;4976219;28;20910;-79
2022/09/23 09:36:43;;;;;;;1.90;1.20;;;21.10;72.00;;;;;;4976075;28;20441;-79
2022/09/23 09:39:12;;;;;;;1.10;0.80;;;21.50;75.20;;;;;;4975989;28;20855;-79
2022/09/23 09:41:47;;;;;;;1.00;0.80;;;21.90;77.20;;;;;;4965426;28;20533;-80
2022/09/23 09:44:30;;;;;;;1.20;0.77;;;22.10;70.40;;;;;;4956758;29;20414;-79
2022/09/23 09:47:15;;;;;;;2.27;1.10;;;22.10;72.70;;;;;;4956659;28;20421;-79
2022/09/23 09:49:47;;;;;;;2.10;1.10;;;21.60;71.20;;;;;;4955189;28;20422;-79
2022/09/23 09:52:30;;;;;;;1.10;0.90;;;21.40;71.70;;;;;;4956578;28;20442;-79
2022/09/23 09:55:22;;;;;;;1.30;1.07;;;20.90;74.20;;;;;;4956480;29;20426;-80
2022/09/23 09:57:52;;;;;;;5.33;1.23;;;19.70;71.20;;;;;;4956189;28;20543;-79
2022/09/23 10:00:20;;;;;;;3.43;0.90;;;19.90;75.10;;;;;;4956548;28;20399;-79
2022/09/23 10:02:51;;;;;;;1.40;0.90;;;20.90;73.60;;;;;;4956367;28;20446;-79
2022/09/23 10:05:31;;;;;;;2.00;1.00;;;21.60;76.30;;;;;;4956321;28;20429;-79
2022/09/23 10:08:27;;;;;;;1.10;0.80;;;22.00;75.50;;;;;;4956081;29;20406;-79
2022/09/23 10:11:03;;;;;;;1.10;0.90;;;21.70;75.10;;;;;;4956208;28;20970;-79
2022/09/23 10:13:30;;;;;;;1.57;0.93;;;21.90;72.20;;;;;;4956188;28;20909;-79
2022/09/23 10:15:58;;;;;;;4.30;1.40;;;21.70;73.60;;;;;;4956043;28;20455;-79
2022/09/23 10:18:33;;;;;;;1.60;0.90;;;21.50;73.80;;;;;;4955916;29;20505;-79
2022/09/23 10:21:05;;;;;;;1.13;0.90;;;21.40;74.80;;;;;;4955944;28;20952;-79
2022/09/23 10:23:32;;;;;;;2.40;1.00;;;20.40;72.30;;;;;;4956402;28;20497;-78
2022/09/23 10:26:02;;;;;;;1.07;0.80;;;19.80;78.10;;;;;;4955428;29;20419;-79
2022/09/23 10:28:37;;;;;;;1.10;0.80;;;19.20;79.30;;;;;;4955495;29;21003;-78
2022/09/23 10:31:24;;;;;;;2.03;0.90;;;19.50;82.90;;;;;;4955792;28;20434;-79
2022/09/23 10:33:59;;;;;;;3.07;1.00;;;19.90;84.20;;;;;;4955665;28;20951;-78
2022/09/23 10:36:29;;;;;;;1.20;1.00;;;19.90;80.00;;;;;;4955661;28;20956;-78
2022/09/23 10:48:13;;;;;;;1.10;1.00;;;19.50;80.10;;;;;;4974931;28;20494;-79
2022/09/23 10:50:46;;;;;;;2.13;0.83;;;19.20;77.50;;;;;;4974690;28;20437;-79
2022/09/23 10:53:22;;;;;;;1.57;0.80;;;18.50;76.80;;;;;;4989614;28;20433;-79
2022/09/23 10:56:18;;;;;;;1.30;1.00;;;18.20;79.10;;;;;;4968978;28;20470;-79
2022/09/23 10:59:16;;;;;;;1.10;0.90;;;17.90;81.30;;;;;;4934066;29;20796;-79
2022/09/23 11:02:02;;;;;;;1.50;1.00;;;17.70;82.20;;;;;;4936692;29;20431;-79
2022/09/23 11:04:51;;;;;;;0.90;0.73;;;17.50;80.80;;;;;;4951919;29;20412;-79
2022/09/23 11:07:43;;;;;;;1.40;0.90;;;17.30;85.40;;;;;;4954493;29;20418;-78
2022/09/23 11:10:28;;;;;;;1.87;1.00;;;17.20;83.60;;;;;;4955560;28;20903;-80
2022/09/23 11:13:34;;;;;;;1.20;1.00;;;17.00;82.40;;;;;;4955545;29;20411;-79
2022/09/23 11:16:11;;;;;;;1.63;0.90;;;16.90;81.50;;;;;;4955517;28;20553;-78
2022/09/23 11:18:48;;;;;;;3.83;1.20;;;16.90;81.60;;;;;;4955209;28;20446;-80
2022/09/23 11:21:25;;;;;;;3.67;1.00;;;17.10;81.30;;;;;;4954907;28;20430;-79
2022/09/23 11:24:26;;;;;;;1.67;1.13;;;17.00;82.80;;;;;;4954922;28;20406;-78
2022/09/23 11:27:09;;;;;;;1.07;0.90;;;16.80;85.10;;;;;;4955491;28;20434;-80
2022/09/23 11:30:05;;;;;;;3.10;0.83;;;16.60;84.30;;;;;;4953438;28;20426;-79
2022/09/23 11:33:06;;;;;;;1.63;0.87;;;16.80;83.70;;;;;;4981476;28;20843;-79
2022/09/23 11:35:52;;;;;;;1.30;0.90;;;17.20;86.10;;;;;;4964612;28;21028;-80
2022/09/23 11:38:24;;;;;;;1.10;0.90;;;17.90;85.50;;;;;;4942495;28;20415;-80
2022/09/23 11:40:54;;;;;;;1.60;1.03;;;18.10;79.00;;;;;;4968577;28;20446;-80
2022/09/23 11:43:22;;;;;;;1.67;0.83;;;16.90;80.80;;;;;;4951005;29;21052;-80
2022/09/23 11:46:09;;;;;;;1.67;0.90;;;16.90;85.00;;;;;;4955812;28;20411;-80
2022/09/23 11:48:44;;;;;;;2.17;0.80;;;17.40;87.50;;;;;;4972508;28;20832;-79
2022/09/23 11:51:28;;;;;;;0.90;0.73;;;17.20;86.20;;;;;;4963235;28;20464;-79
2022/09/23 11:54:01;;;;;;;1.20;0.83;;;17.10;87.60;;;;;;4954772;29;20403;-79
2022/09/23 11:56:37;;;;;;;2.13;0.90;;;17.00;87.50;;;;;;4956045;29;20458;-79
2022/09/23 11:59:19;;;;;;;1.97;1.17;;;17.40;88.50;;;;;;4956202;29;20445;-78
2022/09/23 13:55:36;;;;;;;2.70;2.00;;;15.40;96.30;;;;;;4974240;28;20477;-79
2022/09/23 13:58:16;;;;;;;3.30;1.50;;;15.10;96.30;;;;;;4975262;28;20428;-76
2022/09/23 14:00:42;;;;;;;2.50;1.60;;;15.40;96.20;;;;;;4956114;28;20457;-77
2022/09/23 14:03:17;;;;;;;8.07;2.00;;;15.90;96.30;;;;;;4956713;28;20831;-77
2022/09/23 14:05:43;;;;;;;4.17;1.33;;;16.30;96.20;;;;;;4956603;28;20228;-76
2022/09/23 14:08:09;;;;;;;1.53;1.43;;;16.70;93.70;;;;;;4955938;28;20872;-78
2022/09/23 14:10:35;;;;;;;3.73;1.50;;;16.50;93.50;;;;;;4956176;28;20521;-76
2022/09/23 14:13:01;;;;;;;1.60;1.23;;;15.90;93.40;;;;;;4956328;28;20179;-77
2022/09/23 14:15:26;;;;;;;2.53;1.50;;;15.70;95.70;;;;;;4956309;29;20562;-77
2022/09/23 14:18:01;;;;;;;2.27;1.23;;;15.50;96.30;;;;;;4955806;28;20302;-77
2022/09/23 14:20:27;;;;;;;1.70;1.50;;;15.60;96.10;;;;;;4955990;28;20578;-77
2022/09/23 14:23:10;;;;;;;5.00;1.67;;;15.40;96.30;;;;;;4955923;29;20414;-77
2022/09/23 14:25:35;;;;;;;3.10;1.30;;;15.40;96.30;;;;;;4956069;28;20178;-77
2022/09/23 14:28:01;;;;;;;2.60;1.80;;;15.20;96.30;;;;;;4955725;28;20918;-77
2022/09/23 14:30:27;;;;;;;2.77;1.63;;;15.20;96.30;;;;;;4955646;28;20644;-77
2022/09/23 14:32:53;;;;;;;3.00;2.00;;;15.10;96.30;;;;;;4955661;28;20226;-77
2022/09/23 14:35:24;;;;;;;2.57;1.60;;;15.10;96.30;;;;;;4954437;29;20489;-77
2022/09/23 14:40:51;;;;;;;3.97;1.47;;;15.40;96.30;;;;;;4961546;28;20517;-78
2022/09/23 14:43:24;;;;;;;2.03;1.70;;;15.50;96.30;;;;;;4994385;28;20400;-78
2022/09/23 14:45:57;;;;;;;3.47;1.47;;;15.30;96.30;;;;;;4994424;28;20394;-77
2022/09/23 14:48:26;;;;;;;1.83;1.53;;;15.40;96.30;;;;;;4994156;28;20444;-77
2022/09/23 14:50:57;;;;;;;1.80;1.47;;;15.50;96.30;;;;;;4994163;28;20447;-77
2022/09/23 14:53:31;;;;;;;2.07;1.30;;;15.50;96.30;;;;;;4994331;28;20817;-78
2022/09/23 14:56:06;;;;;;;2.93;2.10;;;15.60;96.30;;;;;;4994154;28;20401;-78
2022/09/23 14:58:54;;;;;;;4.07;2.20;;;15.60;96.30;;;;;;4993902;28;20408;-77
2022/09/23 15:01:34;;;;;;;2.83;2.40;;;15.70;96.30;;;;;;4994048;28;20511;-77
2022/09/23 15:04:30;;;;;;;6.77;2.10;;;15.70;96.30;;;;;;4993953;28;20507;-77
2022/09/23 15:07:06;;;;;;;2.00;1.47;;;15.60;96.30;;;;;;4993907;28;20924;-77
2022/09/23 15:09:34;;;;;;;2.93;2.17;;;15.60;96.30;;;;;;4993776;28;20405;-78
2022/09/23 15:12:04;;;;;;;1.90;1.70;;;15.50;96.30;;;;;;5008846;28;20468;-78
2022/09/23 15:14:35;;;;;;;9.67;1.60;;;15.40;96.30;;;;;;5008911;28;20787;-78
2022/09/23 15:17:05;;;;;;;3.20;1.50;;;15.50;96.30;;;;;;4993757;28;20543;-77
2022/09/23 15:19:34;;;;;;;4.13;1.70;;;15.50;96.30;;;;;;4992737;28;20733;-78
2022/09/23 15:21:59;;;;;;;3.97;2.60;;;15.40;96.30;;;;;;5008718;28;20513;-77
2022/09/23 15:24:52;;;;;;;3.87;1.50;;;15.20;96.30;;;;;;4993737;28;20451;-78
2022/09/23 15:27:33;;;;;;;1.83;1.50;;;15.10;96.30;;;;;;4976025;28;20197;-77
2022/09/23 15:30:18;;;;;;;2.13;1.70;;;15.10;96.30;;;;;;4973995;28;20422;-77
2022/09/23 15:32:44;;;;;;;2.90;1.63;;;15.10;96.30;;;;;;4974130;28;20413;-77
2022/09/23 15:35:15;;;;;;;2.87;2.17;;;15.10;96.30;;;;;;4973969;28;20420;-78
2022/09/23 15:37:42;;;;;;;2.27;1.37;;;15.10;96.30;;;;;;4972413;28;20544;-78
2022/09/23 15:40:31;;;;;;;1.90;1.27;;;15.00;96.30;;;;;;4973814;28;20409;-77
2022/09/23 15:43:00;;;;;;;1.70;1.30;;;14.90;96.30;;;;;;4954600;28;20783;-78
2022/09/23 15:45:29;;;;;;;3.00;1.53;;;14.90;96.30;;;;;;4954633;28;20406;-77
2022/09/23 15:47:59;;;;;;;3.10;1.70;;;14.90;96.30;;;;;;4954293;29;20414;-78
2022/09/23 15:50:26;;;;;;;1.70;1.53;;;14.60;96.30;;;;;;4954347;28;20391;-78
2022/09/23 15:52:51;;;;;;;4.27;1.73;;;14.50;96.30;;;;;;4954207;28;20915;-77
2022/09/23 15:55:22;;;;;;;3.07;1.73;;;14.30;96.30;;;;;;4954213;29;20522;-77
2022/09/23 15:57:48;;;;;;;7.10;2.10;;;14.30;96.30;;;;;;4963299;28;20198;-78
2022/09/23 16:00:14;;;;;;;4.43;4.00;;;14.30;96.30;;;;;;4973620;28;20909;-77
2022/09/23 16:02:42;;;;;;;3.87;2.57;;;14.20;96.30;;;;;;4973432;28;20409;-77
2022/09/23 16:05:20;;;;;;;5.63;1.47;;;14.10;96.30;;;;;;4973465;28;20480;-77
2022/09/23 16:07:47;;;;;;;4.27;2.07;;;14.10;96.30;;;;;;4973508;28;20394;-77
2022/09/23 16:10:13;;;;;;;3.53;2.37;;;14.00;96.30;;;;;;4973143;28;20504;-78
2022/09/23 16:12:39;;;;;;;3.40;2.67;;;13.90;96.30;;;;;;4972885;28;20430;-78
2022/09/23 16:15:12;;;;;;;5.80;2.83;;;13.90;96.30;;;;;;4972990;28;20434;-77
2022/09/23 16:17:38;;;;;;;2.67;2.10;;;13.80;96.30;;;;;;4971124;28;20205;-79
2022/09/23 16:20:03;;;;;;;6.23;2.50;;;13.70;96.30;;;;;;4973457;28;20437;-76
2022/09/23 16:22:29;;;;;;;4.87;2.47;;;13.70;96.30;;;;;;4974481;28;20202;-76
2022/09/23 16:24:55;;;;;;;3.90;1.90;;;13.60;96.30;;;;;;4974414;28;20650;-77
2022/09/23 16:27:21;;;;;;;6.37;2.53;;;13.30;96.30;;;;;;4974309;28;20433;-76
2022/09/23 16:29:46;;;;;;;4.33;2.57;;;13.20;96.30;;;;;;4973382;28;20212;-77
2022/09/23 16:32:12;;;;;;;2.20;2.00;;;13.00;96.30;;;;;;4975156;28;20491;-79
2022/09/23 16:34:37;;;;;;;2.70;2.03;;;12.80;96.30;;;;;;4977426;28;20186;-78
2022/09/23 16:37:03;;;;;;;3.60;2.50;;;12.60;96.30;;;;;;4978805;28;20272;-74
2022/09/23 16:39:29;;;;;;;3.13;2.83;;;12.30;96.30;;;;;;4978084;28;20512;-76
2022/09/23 16:41:54;;;;;;;6.70;2.57;;;12.10;96.30;;;;;;4990369;28;20207;-74
2022/09/23 16:44:20;;;;;;;9.20;4.10;;;12.00;96.30;;;;;;4996250;28;20232;-74
2022/09/23 16:46:45;;;;;;;4.17;3.07;;;11.70;96.30;;;;;;4999971;28;20245;-74
2022/09/23 16:49:11;;;;;;;10.37;5.40;;;11.50;96.30;;;;;;5000339;28;20248;-74
2022/09/23 16:51:37;;;;;;;14.37;9.67;;;11.30;96.30;;;;;;4999887;28;20197;-74
2022/09/23 16:54:09;;;;;;;28.83;22.87;;;11.10;96.30;;;;;;4996268;28;20232;-74
2022/09/23 16:56:37;;;;;;;17.07;10.43;;;10.90;96.30;;;;;;4996295;28;20193;-74
2022/09/23 16:59:02;;;;;;;12.23;9.13;;;10.70;96.30;;;;;;4995730;28;20451;-76
2022/09/23 17:04:14;;;;;;;56.40;39.27;;;10.50;96.30;;;;;;4996314;28;20408;-79
2022/09/23 17:06:48;;;;;;;44.60;25.67;;;10.40;96.30;;;;;;4996768;28;20429;-78
2022/09/23 17:09:15;;;;;;;22.33;15.67;;;10.50;96.30;;;;;;4998187;28;20412;-78
2022/09/23 17:11:42;;;;;;;14.33;11.47;;;10.30;96.30;;;;;;4999139;28;20459;-77
2022/09/23 17:14:09;;;;;;;11.30;4.90;;;10.10;96.30;;;;;;4999471;28;20412;-77
2022/09/23 17:16:34;;;;;;;4.67;3.63;;;10.00;96.30;;;;;;5012698;28;20460;-76
2022/09/23 17:19:08;;;;;;;4.93;4.43;;;9.80;96.30;;;;;;5012850;28;20495;-76
2022/09/23 17:21:34;;;;;;;4.60;4.00;;;9.80;96.30;;;;;;5013155;28;20207;-77
2022/09/23 17:24:00;;;;;;;8.43;4.90;;;9.70;96.30;;;;;;4998027;28;20409;-75
2022/09/23 17:26:27;;;;;;;9.70;7.27;;;9.50;96.30;;;;;;4996559;28;20221;-75
2022/09/23 17:28:54;;;;;;;20.80;13.47;;;9.40;96.30;;;;;;5011396;28;21160;-75
2022/09/23 17:31:23;;;;;;;22.27;14.00;;;9.20;96.30;;;;;;4996516;28;20503;-76
2022/09/23 17:33:49;;;;;;;11.10;7.70;;;9.20;96.30;;;;;;4996072;28;20412;-77
2022/09/23 17:36:15;;;;;;;9.27;5.50;;;9.10;96.30;;;;;;4995783;28;20509;-76
2022/09/23 17:38:43;;;;;;;4.93;3.90;;;9.10;96.30;;;;;;4995196;28;20425;-77
2022/09/23 17:41:08;;;;;;;3.87;3.43;;;9.20;96.30;;;;;;4989024;28;20209;-75
2022/09/23 17:43:35;;;;;;;6.10;3.37;;;9.20;96.30;;;;;;4975379;28;20414;-76
2022/09/23 17:46:06;;;;;;;5.90;4.20;;;9.30;96.30;;;;;;4974975;28;20577;-75
2022/09/23 17:48:34;;;;;;;5.30;4.80;;;9.30;96.30;;;;;;4975596;28;20894;-76
2022/09/23 17:51:03;;;;;;;5.63;4.90;;;9.30;96.30;;;;;;4975794;28;20436;-76
2022/09/23 17:53:34;;;;;;;4.83;3.70;;;9.30;96.30;;;;;;4976074;28;20425;-76
2022/09/23 17:56:06;;;;;;;4.60;4.00;;;9.30;96.30;;;;;;4974661;28;20827;-75
2022/09/23 17:58:36;;;;;;;3.77;3.37;;;9.30;96.30;;;;;;4973188;28;20762;-79
2022/09/23 18:41:32;;;;;;;10.03;5.23;;;9.00;96.30;;;;;;4956282;28;20409;-77
2022/09/23 18:59:15;;;;;;;24.67;18.50;;;8.90;96.30;;;;;;4980273;28;20429;-77
2022/09/23 22:38:40;;;;;;;5.30;3.10;;;8.20;96.30;;;;;;4976276;28;20620;-79
2022/09/23 22:41:05;;;;;;;5.53;3.57;;;8.20;96.30;;;;;;4983273;28;20445;-81
2022/09/23 22:43:32;;;;;;;4.43;3.20;;;8.30;96.30;;;;;;4981543;28;20417;-81
2022/09/23 22:45:58;;;;;;;4.43;3.20;;;8.30;96.30;;;;;;4975368;28;20174;-78
2022/09/23 22:48:24;;;;;;;3.57;3.13;;;8.30;96.30;;;;;;4976312;28;20597;-78
2022/09/23 22:50:50;;;;;;;3.80;2.90;;;8.30;96.30;;;;;;4977583;28;20952;-78
2022/09/23 22:53:15;;;;;;;5.13;3.43;;;8.30;96.30;;;;;;4977910;28;20253;-79
2022/09/23 22:55:41;;;;;;;5.00;3.00;;;8.30;96.30;;;;;;4978344;28;20583;-78
2022/09/23 22:58:07;;;;;;;3.73;3.27;;;8.30;96.30;;;;;;4977454;28;20236;-80
2022/09/23 23:00:32;;;;;;;3.77;2.93;;;8.30;96.30;;;;;;4976113;28;20190;-78
2022/09/23 23:02:59;;;;;;;5.23;3.60;;;8.30;96.30;;;;;;4976010;28;20175;-79
2022/09/23 23:05:25;;;;;;;3.40;3.10;;;8.30;96.30;;;;;;4975921;28;20310;-80
2022/09/23 23:07:52;;;;;;;4.70;3.40;;;8.30;96.30;;;;;;4975791;28;20421;-80
2022/09/23 23:10:18;;;;;;;3.67;2.93;;;8.30;96.30;;;;;;4975795;28;20417;-78
2022/09/23 23:12:44;;;;;;;4.67;3.63;;;8.30;96.30;;;;;;4976010;28;20444;-80
2022/09/23 23:15:11;;;;;;;3.30;2.60;;;8.30;96.30;;;;;;4975025;28;20426;-78
2022/09/23 23:17:37;;;;;;;4.20;3.03;;;8.30;96.30;;;;;;4975992;28;20826;-79
2022/09/23 23:20:03;;;;;;;3.43;3.03;;;8.30;96.30;;;;;;4975564;28;20426;-79
2022/09/23 23:22:29;;;;;;;4.70;3.30;;;8.20;96.30;;;;;;4976814;28;20434;-79
2022/09/23 23:24:55;;;;;;;3.43;2.80;;;8.20;96.30;;;;;;4976768;28;20418;-79
2022/09/23 23:27:20;;;;;;;3.30;3.00;;;8.10;96.30;;;;;;4974737;28;20296;-80
2022/09/23 23:29:46;;;;;;;3.73;2.83;;;8.00;96.30;;;;;;4975940;28;20598;-80
2022/09/23 23:32:11;;;;;;;5.00;2.90;;;8.00;96.30;;;;;;4974749;28;20220;-79
2022/09/23 23:34:36;;;;;;;5.00;3.23;;;7.90;96.30;;;;;;4976418;28;20178;-80
2022/09/23 23:37:02;;;;;;;4.27;3.03;;;7.80;96.30;;;;;;4975669;28;20221;-80
2022/09/23 23:39:27;;;;;;;3.53;2.60;;;7.80;96.30;;;;;;4974573;28;20174;-79
2022/09/23 23:41:54;;;;;;;6.07;3.20;;;7.80;96.30;;;;;;4988055;28;20205;-79
2022/09/23 23:44:22;;;;;;;3.50;2.90;;;7.70;96.30;;;;;;5010238;28;20178;-79
2022/09/23 23:46:48;;;;;;;5.77;2.80;;;7.70;96.30;;;;;;5010608;28;20423;-80
2022/09/23 23:49:13;;;;;;;4.33;2.90;;;7.70;96.30;;;;;;4994939;28;20417;-79
2022/09/23 23:51:39;;;;;;;3.40;2.80;;;7.70;96.30;;;;;;4995195;28;20197;-80
2022/09/23 23:54:05;;;;;;;3.83;2.90;;;7.60;96.30;;;;;;4995120;28;20239;-80
2022/09/23 23:56:31;;;;;;;5.87;3.20;;;7.60;96.30;;;;;;5010226;28;20985;-80
2022/09/23 23:58:58;;;;;;;4.70;3.40;;;7.60;96.30;;;;;;4995579;28;20174;-80
